Latest Weather Observations for Tewantin

IDQ60901

Issued at 6:51 pm EST Thursday 30 May 2024 (issued every 10 minutes, with the page automatically refreshed every 10 minutes)

About weather observations | Map of Brisbane area stations | Latest observations for Brisbane area | Other Formats
Station Details ID: 040908 Name: TEWANTIN RSL PARK Lat: -26.39 Lon: 153.04 Height: 6.4 m
Data from the previous 72 hours. | See also: Recent months at Tewantin
Date/Time
EST
Temp
°C
App
Temp
°C
Dew
Point
°C
Rel
Hum
%
Delta-T
°C
Wind Press
QNH
hPa
Press
MSL
hPa
Rain since
9am
mm
Dir  Spd
km/h
Gust
km/h
Spd
kts
Gust
kts
30/06:30pm 20.5 22.5 15.9 75 2.7 CALM 0 0 0 0 1025.1 1025.1 0.2
30/06:00pm 20.8 21.3 15.6 72 3.1 ENE 7 9 4 5 1024.7 1024.7 0.2
30/05:30pm 21.0 21.5 15.5 71 3.3 ENE 7 13 4 7 1024.4 1024.4 0.2
30/05:00pm 21.8 21.8 15.2 66 3.9 ENE 9 17 5 9 1024.2 1024.2 0.2
30/04:30pm 22.5 22.8 16.1 67 3.9 ENE 9 15 5 8 1024.1 1024.1 0.2
30/04:00pm 22.8 22.4 15.1 62 4.6 E 11 15 6 8 1023.9 1023.9 0.2
30/03:30pm 23.1 22.2 14.9 60 4.9 ENE 13 22 7 12 1023.9 1023.9 0.2
30/03:00pm 23.6 22.5 15.4 60 4.9 E 15 24 8 13 1023.8 1023.8 0.2
30/02:30pm 24.0 23.5 15.8 60 5.0 NE 13 20 7 11 1024.0 1024.0 0.2
30/02:00pm 24.0 23.2 15.0 57 5.4 ENE 13 20 7 11 1024.2 1024.2 0.2
30/01:30pm 23.6 23.4 16.6 65 4.3 ESE 13 19 7 10 1024.4 1024.4 0.2
30/01:00pm 23.6 22.7 15.9 62 4.6 E 15 22 8 12 1024.9 1024.9 0.2
30/12:30pm 23.3 23.6 18.0 72 3.3 ESE 13 19 7 10 1025.1 1025.1 0.2
30/12:00pm 23.1 23.1 18.0 73 3.2 ESE 15 22 8 12 1025.6 1025.6 0.2
30/11:30am 23.2 23.4 17.7 71 3.4 ESE 13 20 7 11 1026.2 1026.2 0.2
30/11:00am 23.0 23.4 18.1 74 3.0 ESE 13 22 7 12 1026.6 1026.6 0.2
30/10:30am 22.8 23.1 18.8 78 2.5 ESE 15 28 8 15 1027.0 1027.0 0.0
30/10:00am 22.0 21.4 18.4 80 2.2 ESE 19 30 10 16 1027.4 1027.4 0.0
30/09:30am 22.3 21.7 18.5 79 2.4 ESE 19 28 10 15 1027.4 1027.4 0.0
30/09:00am 23.0 22.7 16.5 67 3.9 E 13 19 7 10 1027.3 1027.3 20.6
30/08:30am 22.4 23.6 18.2 77 2.6 E 9 17 5 9 1027.3 1027.3 20.6
30/08:00am 20.3 22.0 18.1 87 1.4 S 6 11 3 6 1027.0 1027.0 20.6
30/07:30am 18.8 20.3 18.1 96 0.4 SW 7 11 4 6 1026.7 1026.7 20.6
30/07:00am 18.2 19.2 17.7 97 0.3 SSW 9 13 5 7 1026.4 1026.4 20.6
30/06:30am 18.3 19.3 17.7 96 0.4 S 9 13 5 7 1026.3 1026.3 20.6
30/06:00am 18.3 20.6 17.7 96 0.4 NNE 2 7 1 4 1026.0 1026.0 20.6
30/05:30am 18.3 19.3 17.7 96 0.4 ENE 9 13 5 7 1026.0 1026.0 17.2
30/05:00am 18.6 20.0 17.8 95 0.5 E 7 13 4 7 1025.7 1025.7 9.8
30/04:30am 18.2 19.7 17.7 97 0.3 E 6 13 3 7 1025.3 1025.3 9.2
30/04:00am 17.8 18.9 17.2 96 0.4 SSW 7 9 4 5 1025.3 1025.3 8.8
30/03:30am 17.8 19.1 17.2 96 0.4 SSW 6 9 3 5 1025.3 1025.3 8.8
30/03:00am 17.6 18.7 17.0 96 0.4 SSE 7 13 4 7 1025.2 1025.2 6.4
30/02:30am 17.9 19.0 17.1 95 0.5 SSW 7 13 4 7 1025.4 1025.4 6.2
30/02:00am 18.4 19.3 16.7 90 1.0 SSW 7 11 4 6 1025.2 1025.2 0.0
30/01:30am 18.3 19.3 16.8 91 0.9 SSW 7 13 4 7 1025.6 1025.6 0.0
30/01:00am 18.8 19.8 16.9 89 1.1 SSW 7 11 4 6 1026.0 1026.0 0.0
30/12:30am 20.3 21.2 17.5 84 1.7 SE 9 17 5 9 1026.2 1026.2 0.0
30/12:00am 20.9 20.5 17.1 79 2.3 ESE 15 24 8 13 1026.4 1026.4 0.0
 
Date/Time
EST
Temp
°C
App
Temp
°C
Dew
Point
°C
Rel
Hum
%
Delta-T
°C
Wind Press
QNH
hPa
Press
MSL
hPa
Rain since
9am
mm
Dir  Spd
km/h
Gust
km/h
Spd
kts
Gust
kts
29/11:30pm 20.6 21.8 18.2 86 1.5 SE 9 24 5 13 1026.5 1026.5 0.0
29/11:00pm 19.7 20.8 16.5 82 1.9 SW 6 9 3 5 1026.6 1026.6 0.0
29/10:30pm 20.9 21.8 16.5 76 2.7 SSE 7 11 4 6 1026.7 1026.7 0.0
29/10:00pm 21.1 21.7 16.7 76 2.7 SSE 9 15 5 8 1026.8 1026.8 0.0
29/09:30pm 21.2 22.2 16.8 76 2.7 SE 7 13 4 7 1026.9 1026.9 0.0
29/09:00pm 20.7 21.2 15.0 70 3.3 ESE 6 9 3 5 1026.9 1026.9 0.0
29/08:30pm 21.1 21.1 15.2 69 3.5 E 9 11 5 6 1026.8 1026.8 0.0
29/08:00pm 21.6 21.1 15.0 66 3.9 E 11 20 6 11 1026.8 1026.8 0.0
29/07:30pm 21.7 21.8 15.5 68 3.7 E 9 17 5 9 1026.7 1026.7 0.0
29/07:00pm 21.8 21.6 15.6 68 3.7 E 11 20 6 11 1026.6 1026.6 0.0
29/06:30pm 21.7 21.5 15.8 69 3.5 ESE 11 17 6 9 1026.4 1026.4 0.0
29/06:00pm 21.8 21.3 15.9 69 3.5 ESE 13 19 7 10 1026.1 1026.1 0.0
29/05:30pm 21.5 21.7 15.8 70 3.4 ESE 9 13 5 7 1025.9 1025.9 0.0
29/05:00pm 21.5 21.6 15.6 69 3.5 ESE 9 15 5 8 1025.7 1025.7 0.0
29/04:30pm 22.1 21.9 15.7 67 3.8 ESE 11 19 6 10 1025.7 1025.7 0.0
29/04:00pm 22.3 22.6 15.9 67 3.8 SE 9 15 5 8 1025.4 1025.4 0.0
29/03:30pm 22.6 22.2 16.2 67 3.9 SE 13 24 7 13 1025.2 1025.2 0.0
29/03:00pm 22.7 21.4 15.8 65 4.1 ESE 17 28 9 15 1025.2 1025.2 0.0
29/02:30pm 22.7 21.7 15.5 64 4.3 SE 15 26 8 14 1025.1 1025.1 0.0
29/02:00pm 23.2 22.0 16.0 64 4.3 ESE 17 28 9 15 1025.1 1025.1 0.0
29/01:30pm 22.9 22.3 16.7 68 3.8 SE 15 22 8 12 1025.2 1025.2 0.0
29/01:00pm 22.7 22.3 17.2 71 3.4 SSE 15 24 8 13 1025.4 1025.4 0.0
29/12:30pm 23.5 22.3 16.1 63 4.5 ESE 17 28 9 15 1025.7 1025.7 0.0
29/12:00pm 23.5 22.7 16.1 63 4.5 SE 15 20 8 11 1026.2 1026.2 0.0
29/11:30am 22.2 22.5 17.1 73 3.1 SE 11 19 6 10 1026.6 1026.6 0.0
29/11:00am 21.7 22.4 17.1 75 2.8 SSE 9 17 5 9 1027.0 1027.0 0.0
29/10:30am 21.2 21.8 17.6 80 2.2 SSE 11 19 6 10 1027.3 1027.3 0.0
29/10:00am 21.3 21.8 18.3 83 1.9 S 13 17 7 9 1027.5 1027.5 0.0
29/09:30am 19.1 19.3 16.7 86 1.4 S 11 15 6 8 1027.6 1027.6 0.0
29/09:00am 18.6 19.1 16.6 88 1.2 S 9 15 5 8 1027.5 1027.5 0.6
29/08:30am 18.2 19.1 16.5 90 1.0 SSW 7 13 4 7 1027.2 1027.2 0.6
29/08:00am 17.9 18.0 16.4 91 0.9 SSW 11 17 6 9 1027.0 1027.0 0.6
29/07:30am 17.1 17.3 15.8 92 0.8 S 9 13 5 7 1026.9 1026.9 0.6
29/07:00am 16.9 17.3 15.4 91 0.9 S 7 13 4 7 1026.7 1026.7 0.0
29/06:30am 16.6 16.9 15.1 91 0.9 SSW 7 11 4 6 1026.3 1026.3 0.0
29/06:00am 16.3 16.6 15.0 92 0.7 S 7 9 4 5 1026.3 1026.3 0.0
29/05:30am 16.6 17.1 15.1 91 0.9 SSW 6 11 3 6 1026.1 1026.1 0.0
29/05:00am 17.1 17.1 15.3 89 1.0 S 9 13 5 7 1025.7 1025.7 0.0
29/04:30am 17.3 17.4 15.5 89 1.1 SSW 9 17 5 9 1025.6 1025.6 0.0
29/04:00am 17.5 18.1 15.7 89 1.1 SSW 7 13 4 7 1025.5 1025.5 0.0
29/03:30am 17.6 17.7 15.6 88 1.2 SSW 9 13 5 7 1025.5 1025.5 0.0
29/03:00am 17.6 18.2 15.8 89 1.1 SSW 7 13 4 7 1025.5 1025.5 0.0
29/02:30am 17.5 18.2 16.0 91 0.9 SSW 7 13 4 7 1025.3 1025.3 0.0
29/02:00am 17.4 17.6 15.7 90 1.0 SSW 9 15 5 8 1025.4 1025.4 0.0
29/01:30am 17.5 18.1 15.8 90 1.0 SW 7 13 4 7 1025.6 1025.6 0.0
29/01:00am 17.9 18.2 16.1 89 1.1 SSW 9 13 5 7 1025.7 1025.7 0.0
29/12:30am 17.9 18.2 16.1 89 1.1 SSW 9 13 5 7 1025.9 1025.9 0.0
29/12:00am 18.0 18.8 16.3 90 1.0 SSW 7 11 4 6 1026.0 1026.0 0.0
 
Date/Time
EST
Temp
°C
App
Temp
°C
Dew
Point
°C
Rel
Hum
%
Delta-T
°C
Wind Press
QNH
hPa
Press
MSL
hPa
Rain since
9am
mm
Dir  Spd
km/h
Gust
km/h
Spd
kts
Gust
kts
28/11:30pm 18.3 18.8 16.5 89 1.1 SSW 9 13 5 7 1026.2 1026.2 0.0
28/11:00pm 18.4 19.2 16.4 88 1.2 S 7 13 4 7 1026.3 1026.3 0.0
28/10:30pm 18.8 18.9 16.4 86 1.4 S 11 15 6 8 1026.4 1026.4 0.0
28/10:00pm 18.8 19.1 16.0 84 1.7 S 9 13 5 7 1026.5 1026.5 0.0
28/09:30pm 18.8 19.1 15.9 83 1.7 S 9 13 5 7 1026.5 1026.5 0.0
28/09:00pm 19.0 18.9 15.9 82 1.8 S 11 15 6 8 1026.3 1026.3 0.0
28/08:30pm 18.8 19.2 16.2 85 1.6 S 9 11 5 6 1026.2 1026.2 0.0
28/08:00pm 18.4 18.6 15.8 85 1.5 S 9 11 5 6 1026.1 1026.1 0.0
28/07:30pm 18.6 18.9 16.0 85 1.5 S 9 11 5 6 1025.9 1025.9 0.0
28/07:00pm 19.1 20.0 16.1 83 1.8 S 6 11 3 6 1025.8 1025.8 0.0
28/06:30pm 19.6 20.4 16.3 81 2.0 S 7 11 4 6 1025.6 1025.6 0.0
28/06:00pm 19.5 20.2 16.0 80 2.1 SSE 7 11 4 6 1025.3 1025.3 0.0
28/05:30pm 20.3 20.2 16.1 77 2.5 S 11 17 6 9 1025.0 1025.0 0.0
28/05:00pm 21.0 21.0 16.2 74 2.9 S 11 15 6 8 1024.7 1024.7 0.0
28/04:30pm 21.3 21.6 16.0 72 3.2 SSE 9 15 5 8 1024.7 1024.7 0.0
28/04:00pm 21.4 21.6 15.7 70 3.4 SSE 9 19 5 10 1024.4 1024.4 0.0
28/03:30pm 21.9 21.8 16.0 69 3.6 SSE 11 19 6 10 1024.1 1024.1 0.0
28/03:00pm 22.3 21.8 15.9 67 3.8 SSE 13 22 7 12 1024.0 1024.0 0.0
28/02:30pm 22.4 21.8 15.7 66 4.0 SE 13 22 7 12 1024.1 1024.1 0.0
28/02:00pm 22.7 21.3 15.5 64 4.3 SE 17 28 9 15 1024.1 1024.1 0.0
28/01:30pm 23.3 22.7 15.6 62 4.6 SSE 13 22 7 12 1024.1 1024.1 0.0
28/01:00pm 23.2 23.1 16.0 64 4.3 SSE 11 20 6 11 1024.3 1024.3 0.0
28/12:30pm 22.7 21.9 16.0 66 4.0 S 15 26 8 14 1024.5 1024.5 0.0
28/12:00pm 22.5 21.8 16.5 69 3.6 S 15 22 8 12 1024.8 1024.8 0.0
28/11:30am 22.4 21.8 16.7 70 3.5 S 15 20 8 11 1025.3 1025.3 0.0
28/11:00am 21.4 20.3 16.4 73 3.0 S 17 28 9 15 1025.8 1025.8 0.0
28/10:30am 21.0 19.0 16.4 75 2.8 SSE 22 33 12 18 1026.2 1026.2 0.0
28/10:00am 21.7 20.5 16.0 70 3.4 S 17 28 9 15 1026.0 1026.0 0.0
28/09:30am 22.5 23.9 17.8 75 2.9 S 7 11 4 6 1025.9 1025.9 0.0
28/09:00am 19.9 20.9 16.9 83 1.8 SSW 7 11 4 6 1025.9 1025.9 0.0
28/08:30am 18.9 19.2 16.0 83 1.7 S 9 15 5 8 1025.9 1025.9 0.0
28/08:00am 18.3 17.6 15.4 83 1.7 S 13 17 7 9 1025.4 1025.4 0.0
28/07:30am 18.5 17.9 15.6 83 1.7 S 13 19 7 10 1025.1 1025.1 0.0
28/07:00am 17.8 17.0 15.2 85 1.5 S 13 17 7 9 1024.7 1024.7 0.0
28/06:30am 17.7 17.7 15.1 85 1.5 S 9 13 5 7 1024.4 1024.4 0.0
28/06:00am 17.6 17.4 15.6 88 1.2 SSW 11 17 6 9 1024.1 1024.1 0.0
28/05:30am 17.5 16.8 15.5 88 1.2 S 13 17 7 9 1024.0 1024.0 0.0
28/05:00am 17.7 17.4 15.5 87 1.3 S 11 17 6 9 1023.6 1023.6 0.0
28/04:30am 17.5 18.1 15.7 89 1.1 S 7 11 4 6 1023.4 1023.4 0.0
28/04:00am 17.2 18.3 15.5 90 1.0 SSW 4 7 2 4 1023.4 1023.4 0.0
28/03:30am 17.0 18.0 15.3 90 1.0 S 4 9 2 5 1023.6 1023.6 0.0
28/03:00am 17.3 17.8 15.6 90 1.0 SSW 7 11 4 6 1023.5 1023.5 0.0
28/02:30am 16.5 16.5 15.2 92 0.8 SSW 9 11 5 6 1023.6 1023.6 0.0
28/02:00am 15.8 17.4 15.0 95 0.5 CALM 0 6 0 3 1023.7 1023.7 0.0
28/01:30am 15.9 17.5 14.9 94 0.6 CALM 0 0 0 0 1023.7 1023.7 0.0
28/01:00am 16.1 17.4 15.1 94 0.6 SSW 2 7 1 4 1023.9 1023.9 0.0
28/12:30am 16.3 18.0 15.3 94 0.6 CALM 0 0 0 0 1023.8 1023.8 0.0
28/12:00am 16.4 18.2 15.4 94 0.6 CALM 0 0 0 0 1023.9 1023.9 0.0
 
Date/Time
EST
Temp
°C
App
Temp
°C
Dew
Point
°C
Rel
Hum
%
Delta-T
°C
Wind Press
QNH
hPa
Press
MSL
hPa
Rain since
9am
mm
Dir  Spd
km/h
Gust
km/h
Spd
kts
Gust
kts
27/11:30pm 16.6 18.4 15.5 93 0.6 CALM 0 0 0 0 1024.0 1024.0 0.0
27/11:00pm 16.7 18.5 15.4 92 0.8 CALM 0 6 0 3 1024.1 1024.1 0.0
27/10:30pm 17.0 18.4 15.5 91 0.9 SSE 2 6 1 3 1024.2 1024.2 0.0
27/10:00pm 17.3 19.1 15.6 90 1.0 CALM 0 6 0 3 1024.0 1024.0 0.0
27/09:30pm 17.9 19.2 16.2 90 1.0 S 4 9 2 5 1024.1 1024.1 0.0
27/09:00pm 17.8 18.5 16.1 90 1.0 S 7 11 4 6 1023.9 1023.9 0.0
27/08:30pm 17.5 19.2 16.2 92 0.8 S 2 7 1 4 1023.9 1023.9 0.0
27/08:00pm 17.6 19.6 16.1 91 0.9 CALM 0 6 0 3 1023.7 1023.7 0.0
27/07:30pm 17.8 19.7 15.8 88 1.2 CALM 0 0 0 0 1023.6 1023.6 0.0
27/07:00pm 18.4 19.4 16.4 88 1.2 S 6 9 3 5 1023.3 1023.3 0.0

Latest Capital City Observations: Canberra | Sydney | Melbourne | Brisbane | Adelaide | Perth | Hobart | Darwin

Other formats

Comma delimited format used in spreadsheet applications
http://www.bom.gov.au/fwo/IDQ60901/IDQ60901.94570.axf

JavaScript Object Notation format (JSON) in row-major order
http://www.bom.gov.au/fwo/IDQ60901/IDQ60901.94570.json

Data quality

Most of these data are generated automatically and are frequently updated. Quality checks on data are not normally performed. It is possible for incorrect values to appear. Refer to information at About Latest Weather Observations and please check the disclaimer before using these data.